sensor_id;sensor_type;location;lat;lon;timestamp;P1;durP1;ratioP1;P2;durP2;ratioP2
20828;SDS011;10575;50.124;8.582;2023-02-01T00:00:02;7.45;;;3.90;;
20828;SDS011;10575;50.124;8.582;2023-02-01T00:02:29;6.53;;;3.50;;
20828;SDS011;10575;50.124;8.582;2023-02-01T00:04:54;6.95;;;4.18;;
20828;SDS011;10575;50.124;8.582;2023-02-01T00:07:20;8.70;;;4.80;;
20828;SDS011;10575;50.124;8.582;2023-02-01T00:09:45;10.93;;;4.72;;
20828;SDS011;10575;50.124;8.582;2023-02-01T00:12:11;9.68;;;4.35;;
20828;SDS011;10575;50.124;8.582;2023-02-01T00:14:36;6.35;;;4.80;;
20828;SDS011;10575;50.124;8.582;2023-02-01T00:17:04;8.32;;;3.95;;
20828;SDS011;10575;50.124;8.582;2023-02-01T00:19:31;8.40;;;4.90;;
20828;SDS011;10575;50.124;8.582;2023-02-01T00:21:57;7.20;;;4.03;;
20828;SDS011;10575;50.124;8.582;2023-02-01T00:24:23;8.18;;;4.30;;
20828;SDS011;10575;50.124;8.582;2023-02-01T00:26:48;7.35;;;4.00;;
20828;SDS011;10575;50.124;8.582;2023-02-01T00:29:15;7.55;;;3.85;;
20828;SDS011;10575;50.124;8.582;2023-02-01T00:31:43;7.75;;;4.55;;
20828;SDS011;10575;50.124;8.582;2023-02-01T00:34:10;10.10;;;4.57;;
20828;SDS011;10575;50.124;8.582;2023-02-01T00:36:38;6.55;;;4.05;;
20828;SDS011;10575;50.124;8.582;2023-02-01T00:39:03;6.70;;;4.30;;
20828;SDS011;10575;50.124;8.582;2023-02-01T00:41:29;6.65;;;4.43;;
20828;SDS011;10575;50.124;8.582;2023-02-01T00:43:55;9.32;;;5.10;;
20828;SDS011;10575;50.124;8.582;2023-02-01T00:46:20;10.45;;;4.68;;
20828;SDS011;10575;50.124;8.582;2023-02-01T00:48:47;7.78;;;4.80;;
20828;SDS011;10575;50.124;8.582;2023-02-01T00:51:14;8.93;;;5.03;;
20828;SDS011;10575;50.124;8.582;2023-02-01T00:53:41;8.07;;;5.22;;
20828;SDS011;10575;50.124;8.582;2023-02-01T00:56:07;12.15;;;4.97;;
20828;SDS011;10575;50.124;8.582;2023-02-01T00:58:33;8.55;;;4.43;;
20828;SDS011;10575;50.124;8.582;2023-02-01T01:03:36;8.52;;;4.88;;
20828;SDS011;10575;50.124;8.582;2023-02-01T01:06:05;7.85;;;4.70;;
20828;SDS011;10575;50.124;8.582;2023-02-01T01:08:33;7.65;;;4.57;;
20828;SDS011;10575;50.124;8.582;2023-02-01T01:11:03;7.38;;;5.10;;
20828;SDS011;10575;50.124;8.582;2023-02-01T01:13:30;9.60;;;4.85;;
20828;SDS011;10575;50.124;8.582;2023-02-01T01:15:56;12.18;;;4.85;;
20828;SDS011;10575;50.124;8.582;2023-02-01T01:18:21;8.32;;;4.38;;
20828;SDS011;10575;50.124;8.582;2023-02-01T01:20:47;8.18;;;4.75;;
20828;SDS011;10575;50.124;8.582;2023-02-01T01:23:13;11.05;;;5.13;;
20828;SDS011;10575;50.124;8.582;2023-02-01T01:25:39;8.32;;;5.05;;
20828;SDS011;10575;50.124;8.582;2023-02-01T01:28:05;7.53;;;4.78;;
20828;SDS011;10575;50.124;8.582;2023-02-01T01:30:31;10.23;;;5.55;;
20828;SDS011;10575;50.124;8.582;2023-02-01T01:32:58;9.20;;;4.90;;
20828;SDS011;10575;50.124;8.582;2023-02-01T01:35:23;8.13;;;5.15;;
20828;SDS011;10575;50.124;8.582;2023-02-01T01:37:49;9.98;;;5.63;;
20828;SDS011;10575;50.124;8.582;2023-02-01T01:40:14;11.88;;;5.70;;
20828;SDS011;10575;50.124;8.582;2023-02-01T01:42:41;10.73;;;6.05;;
20828;SDS011;10575;50.124;8.582;2023-02-01T01:45:18;14.00;;;6.22;;
20828;SDS011;10575;50.124;8.582;2023-02-01T01:47:58;10.73;;;6.32;;
20828;SDS011;10575;50.124;8.582;2023-02-01T01:50:30;12.85;;;6.88;;
20828;SDS011;10575;50.124;8.582;2023-02-01T01:53:01;11.88;;;6.55;;
20828;SDS011;10575;50.124;8.582;2023-02-01T01:55:30;12.55;;;6.15;;
20828;SDS011;10575;50.124;8.582;2023-02-01T01:58:19;13.10;;;6.60;;
20828;SDS011;10575;50.124;8.582;2023-02-01T02:00:45;11.48;;;6.75;;
20828;SDS011;10575;50.124;8.582;2023-02-01T02:03:14;14.60;;;7.60;;
20828;SDS011;10575;50.124;8.582;2023-02-01T02:05:46;12.55;;;6.53;;
20828;SDS011;10575;50.124;8.582;2023-02-01T02:08:14;13.98;;;6.60;;
20828;SDS011;10575;50.124;8.582;2023-02-01T02:10:39;11.82;;;6.90;;
20828;SDS011;10575;50.124;8.582;2023-02-01T02:13:23;11.35;;;7.28;;
20828;SDS011;10575;50.124;8.582;2023-02-01T02:18:54;13.63;;;6.82;;
20828;SDS011;10575;50.124;8.582;2023-02-01T02:29:37;16.42;;;6.78;;
20828;SDS011;10575;50.124;8.582;2023-02-01T02:32:28;14.38;;;6.72;;
20828;SDS011;10575;50.124;8.582;2023-02-01T02:37:58;12.25;;;7.57;;
20828;SDS011;10575;50.124;8.582;2023-02-01T02:40:42;15.07;;;8.05;;
20828;SDS011;10575;50.124;8.582;2023-02-01T02:43:20;11.65;;;7.10;;
20828;SDS011;10575;50.124;8.582;2023-02-01T02:46:16;12.00;;;7.57;;
20828;SDS011;10575;50.124;8.582;2023-02-01T02:49:12;11.70;;;6.95;;
20828;SDS011;10575;50.124;8.582;2023-02-01T02:51:46;10.43;;;6.70;;
20828;SDS011;10575;50.124;8.582;2023-02-01T02:54:40;12.85;;;7.28;;
20828;SDS011;10575;50.124;8.582;2023-02-01T02:57:12;15.57;;;7.65;;
20828;SDS011;10575;50.124;8.582;2023-02-01T03:00:02;13.05;;;7.25;;
20828;SDS011;10575;50.124;8.582;2023-02-01T03:02:48;13.32;;;7.28;;
20828;SDS011;10575;50.124;8.582;2023-02-01T03:05:34;14.60;;;7.65;;
20828;SDS011;10575;50.124;8.582;2023-02-01T03:08:22;17.33;;;7.43;;
20828;SDS011;10575;50.124;8.582;2023-02-01T03:10:55;14.45;;;7.60;;
20828;SDS011;10575;50.124;8.582;2023-02-01T03:13:30;11.52;;;6.78;;
20828;SDS011;10575;50.124;8.582;2023-02-01T03:16:06;14.45;;;7.97;;
20828;SDS011;10575;50.124;8.582;2023-02-01T03:21:13;13.00;;;6.82;;
20828;SDS011;10575;50.124;8.582;2023-02-01T03:23:42;11.85;;;7.18;;
20828;SDS011;10575;50.124;8.582;2023-02-01T03:26:11;12.57;;;6.88;;
20828;SDS011;10575;50.124;8.582;2023-02-01T03:28:41;13.32;;;6.93;;
20828;SDS011;10575;50.124;8.582;2023-02-01T03:31:13;14.70;;;7.00;;
20828;SDS011;10575;50.124;8.582;2023-02-01T03:33:39;13.25;;;7.25;;
20828;SDS011;10575;50.124;8.582;2023-02-01T03:38:52;13.57;;;6.85;;
20828;SDS011;10575;50.124;8.582;2023-02-01T03:41:37;12.20;;;6.95;;
20828;SDS011;10575;50.124;8.582;2023-02-01T03:44:13;13.95;;;6.55;;
20828;SDS011;10575;50.124;8.582;2023-02-01T03:46:58;12.50;;;6.55;;
20828;SDS011;10575;50.124;8.582;2023-02-01T03:49:39;13.27;;;6.60;;
20828;SDS011;10575;50.124;8.582;2023-02-01T03:52:10;11.98;;;6.95;;
20828;SDS011;10575;50.124;8.582;2023-02-01T03:54:39;10.40;;;6.03;;
20828;SDS011;10575;50.124;8.582;2023-02-01T03:57:07;15.10;;;6.60;;
20828;SDS011;10575;50.124;8.582;2023-02-01T03:59:42;14.98;;;6.47;;
20828;SDS011;10575;50.124;8.582;2023-02-01T04:02:09;12.18;;;6.70;;
20828;SDS011;10575;50.124;8.582;2023-02-01T04:04:35;14.45;;;6.90;;
20828;SDS011;10575;50.124;8.582;2023-02-01T04:07:01;12.80;;;7.05;;
20828;SDS011;10575;50.124;8.582;2023-02-01T04:09:27;11.63;;;6.05;;
20828;SDS011;10575;50.124;8.582;2023-02-01T04:11:52;9.70;;;6.53;;
20828;SDS011;10575;50.124;8.582;2023-02-01T04:14:18;15.48;;;7.22;;
20828;SDS011;10575;50.124;8.582;2023-02-01T04:16:43;14.20;;;6.40;;
20828;SDS011;10575;50.124;8.582;2023-02-01T04:19:09;22.77;;;6.63;;
20828;SDS011;10575;50.124;8.582;2023-02-01T04:21:35;12.55;;;6.78;;
20828;SDS011;10575;50.124;8.582;2023-02-01T04:24:00;12.57;;;6.60;;
20828;SDS011;10575;50.124;8.582;2023-02-01T04:26:26;12.30;;;6.82;;
20828;SDS011;10575;50.124;8.582;2023-02-01T04:28:51;13.23;;;6.68;;
20828;SDS011;10575;50.124;8.582;2023-02-01T04:31:17;14.52;;;6.55;;
20828;SDS011;10575;50.124;8.582;2023-02-01T04:33:50;14.82;;;7.85;;
20828;SDS011;10575;50.124;8.582;2023-02-01T04:36:16;16.33;;;7.22;;
20828;SDS011;10575;50.124;8.582;2023-02-01T04:38:44;18.98;;;7.65;;
20828;SDS011;10575;50.124;8.582;2023-02-01T04:41:10;12.23;;;6.55;;
20828;SDS011;10575;50.124;8.582;2023-02-01T04:43:35;13.23;;;7.63;;
20828;SDS011;10575;50.124;8.582;2023-02-01T04:46:01;14.00;;;6.95;;
20828;SDS011;10575;50.124;8.582;2023-02-01T04:48:27;14.45;;;7.47;;
20828;SDS011;10575;50.124;8.582;2023-02-01T04:50:52;14.95;;;6.53;;
20828;SDS011;10575;50.124;8.582;2023-02-01T04:53:18;14.43;;;6.70;;
20828;SDS011;10575;50.124;8.582;2023-02-01T04:55:44;11.90;;;7.05;;
20828;SDS011;10575;50.124;8.582;2023-02-01T04:58:09;12.05;;;6.38;;
20828;SDS011;10575;50.124;8.582;2023-02-01T05:00:36;11.77;;;7.07;;
20828;SDS011;10575;50.124;8.582;2023-02-01T05:03:02;15.10;;;6.95;;
20828;SDS011;10575;50.124;8.582;2023-02-01T05:05:28;14.38;;;6.68;;
20828;SDS011;10575;50.124;8.582;2023-02-01T05:07:53;15.05;;;6.60;;
20828;SDS011;10575;50.124;8.582;2023-02-01T05:10:19;13.25;;;6.90;;
20828;SDS011;10575;50.124;8.582;2023-02-01T05:12:44;17.13;;;6.40;;
20828;SDS011;10575;50.124;8.582;2023-02-01T05:15:29;13.48;;;7.55;;
20828;SDS011;10575;50.124;8.582;2023-02-01T05:17:55;14.20;;;6.13;;
20828;SDS011;10575;50.124;8.582;2023-02-01T05:20:21;16.70;;;5.93;;
20828;SDS011;10575;50.124;8.582;2023-02-01T05:22:46;12.10;;;5.40;;
20828;SDS011;10575;50.124;8.582;2023-02-01T05:25:12;12.23;;;5.70;;
20828;SDS011;10575;50.124;8.582;2023-02-01T05:27:37;15.60;;;5.80;;
20828;SDS011;10575;50.124;8.582;2023-02-01T05:30:06;20.52;;;6.20;;
20828;SDS011;10575;50.124;8.582;2023-02-01T05:32:33;14.18;;;5.40;;
20828;SDS011;10575;50.124;8.582;2023-02-01T05:34:59;19.48;;;6.65;;
20828;SDS011;10575;50.124;8.582;2023-02-01T05:37:25;13.38;;;5.25;;
20828;SDS011;10575;50.124;8.582;2023-02-01T05:39:50;15.27;;;5.15;;
20828;SDS011;10575;50.124;8.582;2023-02-01T05:42:16;10.18;;;4.47;;
20828;SDS011;10575;50.124;8.582;2023-02-01T05:44:41;15.98;;;4.97;;
20828;SDS011;10575;50.124;8.582;2023-02-01T05:47:07;11.48;;;4.30;;
20828;SDS011;10575;50.124;8.582;2023-02-01T05:49:33;15.88;;;4.40;;
20828;SDS011;10575;50.124;8.582;2023-02-01T05:51:58;12.25;;;5.15;;
20828;SDS011;10575;50.124;8.582;2023-02-01T05:54:24;9.27;;;4.13;;
20828;SDS011;10575;50.124;8.582;2023-02-01T05:56:50;12.45;;;4.50;;
20828;SDS011;10575;50.124;8.582;2023-02-01T05:59:15;15.32;;;4.32;;
20828;SDS011;10575;50.124;8.582;2023-02-01T06:01:41;14.23;;;4.57;;
20828;SDS011;10575;50.124;8.582;2023-02-01T06:04:06;9.45;;;3.80;;
20828;SDS011;10575;50.124;8.582;2023-02-01T06:06:32;13.15;;;4.20;;
20828;SDS011;10575;50.124;8.582;2023-02-01T06:08:57;13.88;;;3.90;;
20828;SDS011;10575;50.124;8.582;2023-02-01T06:11:23;13.20;;;4.72;;
20828;SDS011;10575;50.124;8.582;2023-02-01T06:13:49;10.55;;;4.63;;
20828;SDS011;10575;50.124;8.582;2023-02-01T06:16:14;13.98;;;4.25;;
20828;SDS011;10575;50.124;8.582;2023-02-01T06:18:40;13.35;;;5.53;;
20828;SDS011;10575;50.124;8.582;2023-02-01T06:21:06;12.70;;;4.88;;
20828;SDS011;10575;50.124;8.582;2023-02-01T06:23:33;14.13;;;3.85;;
20828;SDS011;10575;50.124;8.582;2023-02-01T06:26:00;12.13;;;3.83;;
20828;SDS011;10575;50.124;8.582;2023-02-01T06:28:27;9.77;;;3.72;;
20828;SDS011;10575;50.124;8.582;2023-02-01T06:30:53;11.55;;;4.00;;
20828;SDS011;10575;50.124;8.582;2023-02-01T06:33:19;13.50;;;4.13;;
20828;SDS011;10575;50.124;8.582;2023-02-01T06:35:45;20.95;;;3.85;;
20828;SDS011;10575;50.124;8.582;2023-02-01T06:38:11;12.15;;;4.55;;
20828;SDS011;10575;50.124;8.582;2023-02-01T06:40:37;11.43;;;3.97;;
20828;SDS011;10575;50.124;8.582;2023-02-01T06:43:03;18.67;;;5.30;;
20828;SDS011;10575;50.124;8.582;2023-02-01T06:45:28;20.08;;;4.70;;
20828;SDS011;10575;50.124;8.582;2023-02-01T06:47:54;13.40;;;4.05;;
20828;SDS011;10575;50.124;8.582;2023-02-01T06:50:20;16.13;;;4.10;;
20828;SDS011;10575;50.124;8.582;2023-02-01T06:52:46;20.55;;;4.40;;
20828;SDS011;10575;50.124;8.582;2023-02-01T06:55:11;18.95;;;5.78;;
20828;SDS011;10575;50.124;8.582;2023-02-01T06:57:37;19.90;;;4.53;;
20828;SDS011;10575;50.124;8.582;2023-02-01T07:00:03;11.40;;;5.30;;
20828;SDS011;10575;50.124;8.582;2023-02-01T07:02:29;14.00;;;4.43;;
20828;SDS011;10575;50.124;8.582;2023-02-01T07:04:55;13.10;;;4.95;;
20828;SDS011;10575;50.124;8.582;2023-02-01T07:07:21;13.88;;;4.15;;
20828;SDS011;10575;50.124;8.582;2023-02-01T07:09:47;14.10;;;4.20;;
20828;SDS011;10575;50.124;8.582;2023-02-01T07:12:16;12.68;;;3.53;;
20828;SDS011;10575;50.124;8.582;2023-02-01T07:14:41;16.90;;;4.53;;
20828;SDS011;10575;50.124;8.582;2023-02-01T07:17:07;11.68;;;4.10;;
20828;SDS011;10575;50.124;8.582;2023-02-01T07:19:32;13.93;;;4.47;;
20828;SDS011;10575;50.124;8.582;2023-02-01T07:21:58;10.23;;;4.45;;
20828;SDS011;10575;50.124;8.582;2023-02-01T07:24:24;17.55;;;4.93;;
20828;SDS011;10575;50.124;8.582;2023-02-01T07:26:49;12.15;;;4.90;;
20828;SDS011;10575;50.124;8.582;2023-02-01T07:29:16;15.88;;;4.60;;
20828;SDS011;10575;50.124;8.582;2023-02-01T07:31:42;11.43;;;4.18;;
20828;SDS011;10575;50.124;8.582;2023-02-01T07:34:08;19.60;;;4.28;;
20828;SDS011;10575;50.124;8.582;2023-02-01T07:36:33;18.48;;;5.10;;
20828;SDS011;10575;50.124;8.582;2023-02-01T07:39:01;15.88;;;4.43;;
20828;SDS011;10575;50.124;8.582;2023-02-01T07:41:27;15.23;;;4.18;;
20828;SDS011;10575;50.124;8.582;2023-02-01T07:43:52;14.50;;;4.03;;
20828;SDS011;10575;50.124;8.582;2023-02-01T07:46:18;17.90;;;4.47;;
20828;SDS011;10575;50.124;8.582;2023-02-01T07:48:44;15.00;;;4.65;;
20828;SDS011;10575;50.124;8.582;2023-02-01T07:51:10;11.20;;;4.38;;
20828;SDS011;10575;50.124;8.582;2023-02-01T07:53:37;13.00;;;3.85;;
20828;SDS011;10575;50.124;8.582;2023-02-01T07:56:04;13.70;;;4.43;;
20828;SDS011;10575;50.124;8.582;2023-02-01T07:58:35;14.13;;;4.45;;
20828;SDS011;10575;50.124;8.582;2023-02-01T08:01:00;20.83;;;4.78;;
20828;SDS011;10575;50.124;8.582;2023-02-01T08:03:44;15.27;;;3.78;;
20828;SDS011;10575;50.124;8.582;2023-02-01T08:06:10;13.55;;;4.07;;
20828;SDS011;10575;50.124;8.582;2023-02-01T08:08:35;8.98;;;3.45;;
20828;SDS011;10575;50.124;8.582;2023-02-01T08:11:02;17.67;;;4.77;;
20828;SDS011;10575;50.124;8.582;2023-02-01T08:13:29;9.27;;;4.30;;
20828;SDS011;10575;50.124;8.582;2023-02-01T08:15:58;14.85;;;4.22;;
20828;SDS011;10575;50.124;8.582;2023-02-01T08:18:24;13.70;;;4.15;;
20828;SDS011;10575;50.124;8.582;2023-02-01T08:20:50;8.23;;;4.03;;
20828;SDS011;10575;50.124;8.582;2023-02-01T08:23:16;16.88;;;3.53;;
20828;SDS011;10575;50.124;8.582;2023-02-01T08:25:42;14.70;;;4.00;;
20828;SDS011;10575;50.124;8.582;2023-02-01T08:28:08;19.73;;;4.25;;
20828;SDS011;10575;50.124;8.582;2023-02-01T08:30:35;14.07;;;3.88;;
20828;SDS011;10575;50.124;8.582;2023-02-01T08:33:03;9.75;;;3.97;;
20828;SDS011;10575;50.124;8.582;2023-02-01T08:35:30;15.48;;;4.32;;
20828;SDS011;10575;50.124;8.582;2023-02-01T08:37:56;19.13;;;3.88;;
20828;SDS011;10575;50.124;8.582;2023-02-01T08:40:22;15.75;;;4.18;;
20828;SDS011;10575;50.124;8.582;2023-02-01T08:42:47;14.90;;;3.60;;
20828;SDS011;10575;50.124;8.582;2023-02-01T08:45:16;16.35;;;3.88;;
20828;SDS011;10575;50.124;8.582;2023-02-01T08:47:52;17.40;;;4.00;;
20828;SDS011;10575;50.124;8.582;2023-02-01T08:50:18;19.67;;;4.50;;
20828;SDS011;10575;50.124;8.582;2023-02-01T08:52:44;19.30;;;4.00;;
20828;SDS011;10575;50.124;8.582;2023-02-01T08:55:11;9.13;;;3.67;;
20828;SDS011;10575;50.124;8.582;2023-02-01T08:57:37;11.98;;;3.72;;
20828;SDS011;10575;50.124;8.582;2023-02-01T09:00:05;11.00;;;3.63;;
20828;SDS011;10575;50.124;8.582;2023-02-01T09:02:33;17.60;;;4.30;;
20828;SDS011;10575;50.124;8.582;2023-02-01T09:04:58;15.43;;;4.22;;
20828;SDS011;10575;50.124;8.582;2023-02-01T09:07:24;20.00;;;4.10;;
20828;SDS011;10575;50.124;8.582;2023-02-01T09:09:50;19.25;;;4.38;;
20828;SDS011;10575;50.124;8.582;2023-02-01T09:12:15;22.85;;;3.70;;
20828;SDS011;10575;50.124;8.582;2023-02-01T09:14:41;12.95;;;3.30;;
20828;SDS011;10575;50.124;8.582;2023-02-01T09:17:06;18.25;;;4.03;;
20828;SDS011;10575;50.124;8.582;2023-02-01T09:19:32;14.27;;;4.00;;
20828;SDS011;10575;50.124;8.582;2023-02-01T09:21:58;14.07;;;3.42;;
20828;SDS011;10575;50.124;8.582;2023-02-01T09:24:23;14.10;;;3.78;;
20828;SDS011;10575;50.124;8.582;2023-02-01T09:26:49;14.90;;;3.83;;
20828;SDS011;10575;50.124;8.582;2023-02-01T09:29:15;17.98;;;4.43;;
20828;SDS011;10575;50.124;8.582;2023-02-01T09:31:41;11.50;;;3.45;;
20828;SDS011;10575;50.124;8.582;2023-02-01T09:34:07;14.98;;;3.53;;
20828;SDS011;10575;50.124;8.582;2023-02-01T09:36:32;17.73;;;3.97;;
20828;SDS011;10575;50.124;8.582;2023-02-01T09:38:59;17.15;;;4.00;;
20828;SDS011;10575;50.124;8.582;2023-02-01T09:41:59;15.18;;;4.35;;
20828;SDS011;10575;50.124;8.582;2023-02-01T09:47:25;11.88;;;3.10;;
20828;SDS011;10575;50.124;8.582;2023-02-01T09:49:56;7.53;;;3.03;;
20828;SDS011;10575;50.124;8.582;2023-02-01T09:52:38;12.35;;;3.38;;
20828;SDS011;10575;50.124;8.582;2023-02-01T09:55:13;9.35;;;3.25;;
20828;SDS011;10575;50.124;8.582;2023-02-01T09:57:58;14.10;;;3.78;;
20828;SDS011;10575;50.124;8.582;2023-02-01T10:00:34;10.00;;;3.42;;
20828;SDS011;10575;50.124;8.582;2023-02-01T10:03:02;12.30;;;3.47;;
20828;SDS011;10575;50.124;8.582;2023-02-01T10:08:24;11.95;;;3.05;;
20828;SDS011;10575;50.124;8.582;2023-02-01T10:11:02;12.02;;;3.50;;
20828;SDS011;10575;50.124;8.582;2023-02-01T10:13:51;11.38;;;2.92;;
20828;SDS011;10575;50.124;8.582;2023-02-01T10:16:47;11.95;;;3.55;;
20828;SDS011;10575;50.124;8.582;2023-02-01T10:21:54;14.30;;;3.28;;
20828;SDS011;10575;50.124;8.582;2023-02-01T10:24:28;11.35;;;3.35;;
20828;SDS011;10575;50.124;8.582;2023-02-01T10:29:40;10.32;;;3.20;;
20828;SDS011;10575;50.124;8.582;2023-02-01T10:32:12;9.43;;;2.60;;
20828;SDS011;10575;50.124;8.582;2023-02-01T10:34:39;13.90;;;3.10;;
20828;SDS011;10575;50.124;8.582;2023-02-01T10:37:49;12.70;;;3.78;;
20828;SDS011;10575;50.124;8.582;2023-02-01T10:40:17;12.35;;;3.35;;
20828;SDS011;10575;50.124;8.582;2023-02-01T10:42:46;13.07;;;3.45;;
20828;SDS011;10575;50.124;8.582;2023-02-01T10:45:15;11.80;;;4.35;;
20828;SDS011;10575;50.124;8.582;2023-02-01T10:47:43;7.80;;;3.10;;
20828;SDS011;10575;50.124;8.582;2023-02-01T10:50:29;9.55;;;2.90;;
20828;SDS011;10575;50.124;8.582;2023-02-01T10:53:05;9.48;;;3.13;;
20828;SDS011;10575;50.124;8.582;2023-02-01T10:55:54;11.23;;;2.75;;
20828;SDS011;10575;50.124;8.582;2023-02-01T10:58:25;13.10;;;2.92;;
20828;SDS011;10575;50.124;8.582;2023-02-01T11:00:54;11.60;;;3.40;;
20828;SDS011;10575;50.124;8.582;2023-02-01T11:05:56;12.85;;;3.20;;
20828;SDS011;10575;50.124;8.582;2023-02-01T11:08:21;13.93;;;3.25;;
20828;SDS011;10575;50.124;8.582;2023-02-01T11:10:49;13.35;;;3.30;;
20828;SDS011;10575;50.124;8.582;2023-02-01T11:13:27;18.13;;;3.72;;
20828;SDS011;10575;50.124;8.582;2023-02-01T11:15:58;12.07;;;2.90;;
20828;SDS011;10575;50.124;8.582;2023-02-01T11:18:27;11.75;;;3.03;;
20828;SDS011;10575;50.124;8.582;2023-02-01T11:20:54;10.40;;;3.22;;
20828;SDS011;10575;50.124;8.582;2023-02-01T11:23:24;12.70;;;3.13;;
20828;SDS011;10575;50.124;8.582;2023-02-01T11:25:55;8.27;;;2.97;;
20828;SDS011;10575;50.124;8.582;2023-02-01T11:28:26;16.05;;;3.35;;
20828;SDS011;10575;50.124;8.582;2023-02-01T11:30:56;11.88;;;2.78;;
20828;SDS011;10575;50.124;8.582;2023-02-01T11:33:31;13.40;;;2.78;;
20828;SDS011;10575;50.124;8.582;2023-02-01T11:36:00;11.68;;;2.95;;
20828;SDS011;10575;50.124;8.582;2023-02-01T11:38:38;8.05;;;2.30;;
20828;SDS011;10575;50.124;8.582;2023-02-01T11:41:14;12.38;;;2.60;;
20828;SDS011;10575;50.124;8.582;2023-02-01T11:43:55;15.30;;;2.85;;
20828;SDS011;10575;50.124;8.582;2023-02-01T11:46:33;9.77;;;3.03;;
20828;SDS011;10575;50.124;8.582;2023-02-01T11:54:43;11.27;;;3.72;;
20828;SDS011;10575;50.124;8.582;2023-02-01T12:11:38;12.00;;;2.53;;
20828;SDS011;10575;50.124;8.582;2023-02-01T12:14:30;10.85;;;3.00;;
20828;SDS011;10575;50.124;8.582;2023-02-01T12:20:28;10.48;;;2.90;;
20828;SDS011;10575;50.124;8.582;2023-02-01T12:23:21;9.98;;;2.90;;
20828;SDS011;10575;50.124;8.582;2023-02-01T12:26:10;9.90;;;2.63;;
20828;SDS011;10575;50.124;8.582;2023-02-01T12:28:48;11.57;;;2.67;;
20828;SDS011;10575;50.124;8.582;2023-02-01T12:34:34;10.38;;;2.97;;
20828;SDS011;10575;50.124;8.582;2023-02-01T12:43:03;13.63;;;2.95;;
20828;SDS011;10575;50.124;8.582;2023-02-01T12:45:36;20.30;;;3.40;;
20828;SDS011;10575;50.124;8.582;2023-02-01T12:50:59;14.15;;;3.08;;
20828;SDS011;10575;50.124;8.582;2023-02-01T12:53:38;15.35;;;3.10;;
20828;SDS011;10575;50.124;8.582;2023-02-01T12:56:12;12.70;;;3.42;;
20828;SDS011;10575;50.124;8.582;2023-02-01T12:58:45;14.82;;;3.30;;
20828;SDS011;10575;50.124;8.582;2023-02-01T13:01:21;16.15;;;3.88;;
20828;SDS011;10575;50.124;8.582;2023-02-01T13:06:41;14.93;;;3.03;;
20828;SDS011;10575;50.124;8.582;2023-02-01T13:09:27;15.25;;;3.83;;
20828;SDS011;10575;50.124;8.582;2023-02-01T13:11:59;15.15;;;3.28;;
20828;SDS011;10575;50.124;8.582;2023-02-01T13:14:38;14.27;;;2.83;;
20828;SDS011;10575;50.124;8.582;2023-02-01T13:17:16;10.07;;;2.70;;
20828;SDS011;10575;50.124;8.582;2023-02-01T13:22:34;16.17;;;3.80;;
20828;SDS011;10575;50.124;8.582;2023-02-01T13:27:58;11.80;;;3.70;;
20828;SDS011;10575;50.124;8.582;2023-02-01T13:30:32;14.07;;;2.90;;
20828;SDS011;10575;50.124;8.582;2023-02-01T13:41:28;11.90;;;3.72;;
20828;SDS011;10575;50.124;8.582;2023-02-01T13:44:05;11.50;;;2.70;;
20828;SDS011;10575;50.124;8.582;2023-02-01T13:46:40;7.45;;;2.80;;
20828;SDS011;10575;50.124;8.582;2023-02-01T13:49:13;13.50;;;3.38;;
20828;SDS011;10575;50.124;8.582;2023-02-01T13:51:46;18.98;;;3.70;;
20828;SDS011;10575;50.124;8.582;2023-02-01T13:54:26;8.65;;;2.50;;
20828;SDS011;10575;50.124;8.582;2023-02-01T13:57:01;16.88;;;2.78;;
20828;SDS011;10575;50.124;8.582;2023-02-01T13:59:50;9.90;;;2.17;;
20828;SDS011;10575;50.124;8.582;2023-02-01T14:05:03;11.85;;;2.38;;
20828;SDS011;10575;50.124;8.582;2023-02-01T14:07:32;10.93;;;2.33;;
20828;SDS011;10575;50.124;8.582;2023-02-01T14:09:58;13.07;;;3.15;;
20828;SDS011;10575;50.124;8.582;2023-02-01T14:12:45;7.13;;;2.17;;
20828;SDS011;10575;50.124;8.582;2023-02-01T14:15:22;8.20;;;2.60;;
20828;SDS011;10575;50.124;8.582;2023-02-01T14:17:49;8.60;;;3.03;;
20828;SDS011;10575;50.124;8.582;2023-02-01T14:23:38;11.20;;;3.05;;
20828;SDS011;10575;50.124;8.582;2023-02-01T14:26:07;16.45;;;3.30;;
20828;SDS011;10575;50.124;8.582;2023-02-01T14:28:35;9.98;;;2.42;;
20828;SDS011;10575;50.124;8.582;2023-02-01T14:31:13;15.70;;;3.03;;
20828;SDS011;10575;50.124;8.582;2023-02-01T14:33:54;11.57;;;2.58;;
20828;SDS011;10575;50.124;8.582;2023-02-01T14:36:23;10.77;;;2.25;;
20828;SDS011;10575;50.124;8.582;2023-02-01T14:38:49;9.23;;;2.30;;
20828;SDS011;10575;50.124;8.582;2023-02-01T14:41:26;10.57;;;2.22;;
20828;SDS011;10575;50.124;8.582;2023-02-01T14:49:33;11.75;;;2.72;;
20828;SDS011;10575;50.124;8.582;2023-02-01T14:52:15;8.02;;;2.30;;
20828;SDS011;10575;50.124;8.582;2023-02-01T14:54:46;12.70;;;2.78;;
20828;SDS011;10575;50.124;8.582;2023-02-01T14:57:18;13.48;;;3.22;;
20828;SDS011;10575;50.124;8.582;2023-02-01T14:59:46;9.43;;;2.53;;
20828;SDS011;10575;50.124;8.582;2023-02-01T15:02:17;14.48;;;2.88;;
20828;SDS011;10575;50.124;8.582;2023-02-01T15:04:54;12.60;;;2.53;;
20828;SDS011;10575;50.124;8.582;2023-02-01T15:07:21;15.95;;;3.30;;
20828;SDS011;10575;50.124;8.582;2023-02-01T15:09:49;11.93;;;3.53;;
20828;SDS011;10575;50.124;8.582;2023-02-01T15:12:17;10.98;;;2.47;;
20828;SDS011;10575;50.124;8.582;2023-02-01T15:17:37;14.25;;;3.00;;
20828;SDS011;10575;50.124;8.582;2023-02-01T15:20:13;7.07;;;2.33;;
20828;SDS011;10575;50.124;8.582;2023-02-01T15:22:41;10.73;;;2.38;;
20828;SDS011;10575;50.124;8.582;2023-02-01T15:25:23;7.35;;;2.33;;
20828;SDS011;10575;50.124;8.582;2023-02-01T15:28:03;14.35;;;2.47;;
20828;SDS011;10575;50.124;8.582;2023-02-01T15:30:31;11.88;;;2.60;;
20828;SDS011;10575;50.124;8.582;2023-02-01T15:35:41;8.35;;;2.40;;
20828;SDS011;10575;50.124;8.582;2023-02-01T15:41:00;7.82;;;2.10;;
20828;SDS011;10575;50.124;8.582;2023-02-01T15:46:35;9.98;;;2.15;;
20828;SDS011;10575;50.124;8.582;2023-02-01T15:49:03;28.15;;;7.85;;
20828;SDS011;10575;50.124;8.582;2023-02-01T15:51:39;43.30;;;14.25;;
20828;SDS011;10575;50.124;8.582;2023-02-01T15:54:19;45.20;;;13.35;;
20828;SDS011;10575;50.124;8.582;2023-02-01T15:56:52;30.33;;;9.50;;
20828;SDS011;10575;50.124;8.582;2023-02-01T15:59:20;20.05;;;6.55;;
20828;SDS011;10575;50.124;8.582;2023-02-01T16:01:49;15.15;;;5.10;;
20828;SDS011;10575;50.124;8.582;2023-02-01T16:06:50;13.13;;;2.95;;
20828;SDS011;10575;50.124;8.582;2023-02-01T16:09:21;10.20;;;3.00;;
20828;SDS011;10575;50.124;8.582;2023-02-01T16:11:52;16.95;;;2.90;;
20828;SDS011;10575;50.124;8.582;2023-02-01T16:14:19;9.60;;;2.35;;
20828;SDS011;10575;50.124;8.582;2023-02-01T16:16:45;13.10;;;3.38;;
20828;SDS011;10575;50.124;8.582;2023-02-01T16:19:10;10.50;;;3.10;;
20828;SDS011;10575;50.124;8.582;2023-02-01T16:21:36;7.53;;;2.55;;
20828;SDS011;10575;50.124;8.582;2023-02-01T16:24:02;17.13;;;3.10;;
20828;SDS011;10575;50.124;8.582;2023-02-01T16:26:29;11.65;;;2.83;;
20828;SDS011;10575;50.124;8.582;2023-02-01T16:28:56;11.00;;;2.08;;
20828;SDS011;10575;50.124;8.582;2023-02-01T16:31:25;11.73;;;2.17;;
20828;SDS011;10575;50.124;8.582;2023-02-01T16:33:52;13.25;;;2.42;;
20828;SDS011;10575;50.124;8.582;2023-02-01T16:36:18;17.50;;;4.47;;
20828;SDS011;10575;50.124;8.582;2023-02-01T16:38:44;8.95;;;2.55;;
20828;SDS011;10575;50.124;8.582;2023-02-01T16:41:13;14.15;;;2.97;;
20828;SDS011;10575;50.124;8.582;2023-02-01T16:43:40;18.95;;;7.10;;
20828;SDS011;10575;50.124;8.582;2023-02-01T16:46:05;21.00;;;6.32;;
20828;SDS011;10575;50.124;8.582;2023-02-01T16:48:40;12.82;;;3.13;;